Time;durP1;ratioP1;P1;durP2;ratioP2;P2;SDS_P1;SDS_P2;PMS_P1;PMS_P2;Temp;Humidity;BMP_temperature;BMP_pressure;BME280_temperature;BME280_humidity;BME280_pressure;Samples;Min_cycle;Max_cycle;Signal;HPM_P1;HPM_P2
2022/08/31 00:03:55;;;;;;;1.50;1.27;;;;;;;16.23;65.30;100944.72;5081407;28;20872;-63
2022/08/31 00:06:22;;;;;;;1.63;1.37;;;;;;;16.26;64.99;100946.25;5080819;28;20479;-64
2022/08/31 00:08:49;;;;;;;1.40;1.30;;;;;;;16.18;64.84;100947.06;5093169;28;20481;-63
2022/08/31 00:11:26;;;;;;;3.40;1.60;;;;;;;16.23;64.59;100947.41;5085095;28;20479;-63
2022/08/31 00:13:53;;;;;;;2.97;1.50;;;;;;;16.00;65.03;100937.19;5088945;28;20544;-63
2022/08/31 00:16:20;;;;;;;4.10;1.20;;;;;;;16.13;64.26;100942.13;5098544;28;20514;-63
2022/08/31 00:18:51;;;;;;;3.20;1.27;;;;;;;16.11;63.89;100943.28;5083781;28;20444;-63
2022/08/31 00:21:18;;;;;;;3.00;1.10;;;;;;;16.11;63.73;100938.75;5090370;28;20489;-64
2022/08/31 00:23:45;;;;;;;1.77;1.33;;;;;;;16.05;63.70;100939.38;5099643;28;20458;-63
2022/08/31 00:26:12;;;;;;;1.67;1.10;;;;;;;15.93;63.62;100943.34;5082437;28;20483;-63
2022/08/31 00:28:40;;;;;;;5.53;1.40;;;;;;;15.82;63.63;100931.81;5084815;28;20464;-63
2022/08/31 00:31:07;;;;;;;1.63;1.10;;;;;;;15.87;63.72;100944.00;5093519;28;20470;-63
2022/08/31 00:33:35;;;;;;;1.83;1.10;;;;;;;15.89;63.58;100933.91;5100512;28;20482;-63
2022/08/31 00:36:02;;;;;;;3.67;1.10;;;;;;;15.96;63.31;100940.34;5079840;28;20502;-63
2022/08/31 00:38:29;;;;;;;1.30;1.10;;;;;;;15.84;63.35;100939.75;5082086;28;20444;-63
2022/08/31 00:40:56;;;;;;;1.93;1.23;;;;;;;15.84;63.17;100936.22;5080437;28;20502;-63
2022/08/31 00:43:38;;;;;;;4.17;1.23;;;;;;;15.84;62.98;100930.81;5083207;28;20452;-63
2022/08/31 00:46:06;;;;;;;2.90;1.30;;;;;;;15.61;63.33;100940.22;5093897;28;20475;-63
2022/08/31 00:48:33;;;;;;;1.60;1.17;;;;;;;15.62;63.03;100943.75;5079956;28;20440;-63
2022/08/31 00:51:00;;;;;;;1.93;1.17;;;;;;;15.61;63.07;100936.69;5079604;28;20475;-63
2022/08/31 00:53:27;;;;;;;1.90;1.07;;;;;;;15.47;62.82;100934.53;5084497;28;20472;-63
2022/08/31 00:55:54;;;;;;;1.67;1.07;;;;;;;15.61;62.54;100934.84;5079238;28;20605;-63
2022/08/31 00:58:21;;;;;;;1.40;1.07;;;;;;;15.45;62.72;100929.34;5097713;28;20443;-63
2022/08/31 01:00:48;;;;;;;1.67;1.17;;;;;;;15.52;63.07;100932.22;5095115;28;21028;-63
2022/08/31 01:03:16;;;;;;;2.73;1.30;;;;;;;15.49;62.75;100930.69;5080227;28;20491;-63
2022/08/31 01:05:43;;;;;;;3.40;0.97;;;;;;;15.37;63.14;100931.94;5079826;28;20464;-63
2022/08/31 01:08:09;;;;;;;1.80;0.97;;;;;;;15.32;63.24;100935.09;5089712;28;20447;-63
2022/08/31 01:10:39;;;;;;;2.80;1.60;;;;;;;15.35;63.06;100934.78;5098105;28;20524;-63
2022/08/31 01:13:06;;;;;;;2.47;1.33;;;;;;;15.29;63.20;100926.47;5091295;28;20443;-63
2022/08/31 01:15:32;;;;;;;2.23;0.97;;;;;;;15.29;63.24;100929.19;5084924;28;20541;-63
2022/08/31 01:18:03;;;;;;;4.30;1.20;;;;;;;15.29;63.37;100929.19;5092369;28;20463;-63
2022/08/31 01:20:35;;;;;;;1.30;0.90;;;;;;;15.32;63.13;100936.97;5085065;28;20463;-63
2022/08/31 01:23:08;;;;;;;2.17;1.30;;;;;;;15.33;62.84;100934.09;5094106;28;20475;-63
2022/08/31 01:25:37;;;;;;;3.83;1.23;;;;;;;15.23;63.19;100938.72;5092005;28;20513;-63
2022/08/31 01:28:05;;;;;;;3.17;1.37;;;;;;;15.14;63.77;100929.72;5085817;28;20482;-63
2022/08/31 01:30:32;;;;;;;4.10;1.47;;;;;;;15.11;63.81;100940.81;5097782;28;20473;-63
2022/08/31 01:32:59;;;;;;;5.03;1.60;;;;;;;15.16;63.55;100932.28;5098965;28;20454;-63
2022/08/31 01:35:27;;;;;;;1.50;1.17;;;;;;;15.20;63.45;100939.03;5098334;28;20435;-63
2022/08/31 01:37:54;;;;;;;1.93;1.27;;;;;;;15.22;63.26;100939.72;5098525;28;20461;-63
2022/08/31 01:40:25;;;;;;;2.43;1.40;;;;;;;15.19;63.68;100929.25;5097687;28;20884;-63
2022/08/31 01:42:51;;;;;;;1.30;1.07;;;;;;;15.11;63.71;100923.81;5098437;28;20486;-63
2022/08/31 01:45:18;;;;;;;1.97;1.37;;;;;;;15.07;63.76;100932.19;5097751;28;20553;-64
2022/08/31 01:47:45;;;;;;;2.50;1.10;;;;;;;15.08;63.95;100941.09;5092911;28;20453;-64
2022/08/31 01:50:11;;;;;;;2.20;1.03;;;;;;;15.06;63.74;100933.16;5098415;28;20815;-64
2022/08/31 01:52:40;;;;;;;2.03;1.00;;;;;;;15.11;63.87;100938.09;5095407;28;20871;-63
2022/08/31 01:55:07;;;;;;;2.00;1.27;;;;;;;14.98;64.23;100933.09;5097963;28;20458;-64
2022/08/31 01:57:35;;;;;;;1.50;0.97;;;;;;;15.03;63.88;100936.19;5092654;28;20455;-64
2022/08/31 02:00:04;;;;;;;1.00;0.80;;;;;;;14.96;64.13;100936.94;5084063;28;20447;-64
2022/08/31 02:02:31;;;;;;;1.97;1.20;;;;;;;14.91;64.13;100939.25;5096725;28;20489;-64
2022/08/31 02:04:58;;;;;;;1.97;1.17;;;;;;;14.93;64.31;100950.69;5100520;28;20503;-64
2022/08/31 02:07:25;;;;;;;1.80;1.00;;;;;;;14.99;64.28;100956.31;5097544;28;20479;-64
2022/08/31 02:09:52;;;;;;;2.83;1.00;;;;;;;15.02;64.11;100947.94;5097844;28;20451;-64
2022/08/31 02:12:18;;;;;;;1.20;1.00;;;;;;;15.01;64.00;100945.41;5098368;28;20619;-64
2022/08/31 02:14:46;;;;;;;1.07;0.90;;;;;;;14.90;63.91;100941.09;5093799;28;20465;-64
2022/08/31 02:17:13;;;;;;;1.80;1.40;;;;;;;14.92;64.15;100951.72;5091710;28;20531;-64
2022/08/31 02:19:40;;;;;;;1.70;1.17;;;;;;;14.96;64.16;100943.16;5085123;28;20474;-64
2022/08/31 02:22:07;;;;;;;4.23;1.13;;;;;;;14.76;64.43;100941.63;5102092;28;20505;-64
2022/08/31 02:24:33;;;;;;;1.70;1.50;;;;;;;14.68;64.94;100942.34;5099474;28;20443;-63
2022/08/31 02:27:00;;;;;;;1.23;1.07;;;;;;;14.65;64.92;100931.88;5081437;28;20479;-64
2022/08/31 02:29:26;;;;;;;2.47;1.17;;;;;;;14.59;65.21;100941.41;5086741;28;20466;-64
2022/08/31 02:31:55;;;;;;;1.77;1.07;;;;;;;14.59;65.30;100933.34;5083013;28;20476;-64
2022/08/31 02:34:22;;;;;;;2.10;1.07;;;;;;;14.56;65.11;100938.13;5095615;28;20504;-64
2022/08/31 02:36:49;;;;;;;1.50;1.00;;;;;;;14.52;65.48;100948.34;5101487;28;20497;-64
2022/08/31 02:39:16;;;;;;;1.83;0.97;;;;;;;14.50;65.46;100948.50;5093716;28;20450;-64
2022/08/31 02:41:43;;;;;;;1.83;1.10;;;;;;;14.50;65.64;100947.66;5081533;28;20489;-64
2022/08/31 02:44:10;;;;;;;1.20;1.00;;;;;;;14.44;65.53;100942.88;5089914;28;20467;-64
2022/08/31 02:46:36;;;;;;;3.13;1.17;;;;;;;14.41;65.87;100945.84;5100295;28;20528;-64
2022/08/31 02:49:04;;;;;;;1.53;1.10;;;;;;;14.41;65.82;100945.84;5082864;28;20466;-63
2022/08/31 02:51:31;;;;;;;4.33;1.10;;;;;;;14.33;66.18;100943.91;5081626;28;20471;-63
2022/08/31 02:53:58;;;;;;;2.10;1.40;;;;;;;14.23;66.65;100940.41;5083330;28;20508;-63
2022/08/31 02:56:25;;;;;;;1.40;1.20;;;;;;;14.34;66.07;100944.75;5091493;28;20506;-61
2022/08/31 02:58:53;;;;;;;1.40;1.07;;;;;;;14.36;65.71;100945.47;5085996;28;20444;-63
2022/08/31 03:01:21;;;;;;;2.10;0.80;;;;;;;14.38;65.87;100943.47;5097829;28;20509;-63
2022/08/31 03:03:48;;;;;;;2.40;1.23;;;;;;;14.31;66.22;100944.06;5097386;28;20467;-62
2022/08/31 03:06:16;;;;;;;1.40;0.97;;;;;;;14.22;66.95;100946.81;5100216;28;20554;-63
2022/08/31 03:08:43;;;;;;;1.20;0.90;;;;;;;14.17;66.69;100938.31;5086868;28;20432;-63
2022/08/31 03:11:10;;;;;;;1.90;1.00;;;;;;;14.13;67.06;100945.84;5080421;28;20480;-63
2022/08/31 03:13:36;;;;;;;1.90;1.10;;;;;;;14.04;67.27;100935.94;5101916;28;20455;-63
2022/08/31 03:16:03;;;;;;;3.33;1.80;;;;;;;14.05;67.43;100949.25;5101822;28;20494;-63
2022/08/31 03:18:30;;;;;;;1.20;1.03;;;;;;;14.08;67.21;100942.75;5095474;28;20599;-63
2022/08/31 03:20:56;;;;;;;1.93;1.00;;;;;;;14.09;67.45;100949.81;5101381;28;20474;-63
2022/08/31 03:23:25;;;;;;;1.33;1.23;;;;;;;14.06;67.49;100945.56;5098486;28;21012;-63
2022/08/31 03:25:52;;;;;;;2.40;0.90;;;;;;;14.00;67.59;100937.25;5088788;28;20471;-63
2022/08/31 03:28:18;;;;;;;3.00;1.40;;;;;;;13.96;67.88;100934.00;5093182;28;20478;-63
2022/08/31 03:30:45;;;;;;;3.17;1.80;;;;;;;13.94;67.96;100931.47;5081577;28;20509;-64
2022/08/31 03:33:12;;;;;;;2.90;1.27;;;;;;;13.91;68.06;100931.75;5092736;28;20451;-63
2022/08/31 03:35:43;;;;;;;1.43;1.10;;;;;;;13.90;68.01;100935.41;5091327;28;20470;-63
2022/08/31 03:38:11;;;;;;;2.20;1.10;;;;;;;13.90;68.11;100931.88;5082619;28;20451;-64
2022/08/31 03:40:39;;;;;;;2.50;1.20;;;;;;;13.90;68.21;100939.94;5080653;28;20463;-63
2022/08/31 03:43:10;;;;;;;1.90;1.00;;;;;;;13.90;68.47;100943.47;5092412;28;20507;-62
2022/08/31 03:45:37;;;;;;;2.80;1.30;;;;;;;13.82;68.43;100932.63;5099757;28;20990;-62
2022/08/31 03:48:05;;;;;;;3.10;1.67;;;;;;;13.85;68.57;100935.03;5083018;28;20551;-62
2022/08/31 03:50:32;;;;;;;5.80;1.30;;;;;;;13.81;68.28;100944.34;5091957;28;20466;-63
2022/08/31 03:52:59;;;;;;;3.30;1.10;;;;;;;13.81;68.50;100947.03;5088912;28;20460;-63
2022/08/31 03:55:27;;;;;;;2.20;1.30;;;;;;;13.81;68.64;100951.56;5079251;28;20491;-63
2022/08/31 03:57:55;;;;;;;3.57;1.20;;;;;;;13.80;68.48;100942.69;5089004;28;20469;-63
2022/08/31 04:00:22;;;;;;;1.77;1.17;;;;;;;13.88;68.37;100947.31;5097100;28;21104;-63
2022/08/31 04:02:49;;;;;;;1.00;0.90;;;;;;;13.85;68.48;100953.84;5081683;28;20515;-63
2022/08/31 04:05:16;;;;;;;3.70;1.10;;;;;;;13.78;68.74;100946.47;5081102;28;20440;-62
2022/08/31 04:07:43;;;;;;;2.10;1.20;;;;;;;13.80;69.01;100952.56;5088531;28;20428;-62
2022/08/31 04:10:10;;;;;;;1.40;1.30;;;;;;;13.81;68.96;100951.56;5086744;28;20498;-62
2022/08/31 04:12:37;;;;;;;1.43;1.00;;;;;;;13.75;68.99;100959.22;5080739;28;20440;-62
2022/08/31 04:15:07;;;;;;;2.60;1.37;;;;;;;13.73;69.34;100954.97;5096870;28;20459;-62
2022/08/31 04:17:34;;;;;;;1.70;0.87;;;;;;;13.71;69.36;100954.28;5099050;28;20516;-62
2022/08/31 04:20:01;;;;;;;1.87;1.40;;;;;;;13.68;69.07;100958.09;5100135;28;20436;-62
2022/08/31 04:22:27;;;;;;;2.00;0.90;;;;;;;13.77;69.10;100955.56;5092118;28;20494;-62
2022/08/31 04:24:54;;;;;;;1.80;1.40;;;;;;;13.71;69.23;100956.97;5092475;28;20419;-62
2022/08/31 04:27:21;;;;;;;3.57;1.20;;;;;;;13.71;69.32;100956.97;5088601;28;20475;-63
2022/08/31 04:29:47;;;;;;;5.10;1.13;;;;;;;13.70;69.01;100950.75;5090105;28;20448;-62
2022/08/31 04:32:15;;;;;;;3.70;1.30;;;;;;;13.63;69.28;100952.31;5089726;28;20478;-62
2022/08/31 04:34:42;;;;;;;2.27;1.27;;;;;;;13.71;69.35;100954.28;5089552;28;20779;-63
2022/08/31 04:37:13;;;;;;;1.43;0.97;;;;;;;13.67;69.05;100955.56;5097612;28;20537;-66
2022/08/31 04:39:39;;;;;;;4.00;1.07;;;;;;;13.70;69.35;100961.50;5085207;28;20432;-67
2022/08/31 04:42:06;;;;;;;1.57;1.00;;;;;;;13.79;69.29;100959.78;5080512;28;20476;-66
2022/08/31 04:44:33;;;;;;;3.17;1.10;;;;;;;13.89;69.17;100962.47;5094236;28;20446;-67
2022/08/31 04:47:00;;;;;;;1.20;0.90;;;;;;;13.93;68.96;100956.63;5082055;28;21072;-68
2022/08/31 04:49:28;;;;;;;1.47;1.07;;;;;;;14.01;68.68;100963.13;5080356;28;20472;-67
2022/08/31 04:51:55;;;;;;;1.60;1.13;;;;;;;14.04;68.26;100960.97;5077532;28;20476;-67
2022/08/31 04:54:21;;;;;;;4.90;2.20;;;;;;;14.10;68.43;100968.47;5078356;28;20440;-67
2022/08/31 04:56:48;;;;;;;6.43;1.20;;;;;;;14.04;68.42;100970.91;5079220;28;20586;-67
2022/08/31 04:59:18;;;;;;;2.13;0.97;;;;;;;14.04;68.38;100970.91;5080536;28;20439;-67
2022/08/31 05:01:45;;;;;;;2.03;1.10;;;;;;;14.24;68.15;100977.91;5078765;28;20479;-68
2022/08/31 05:04:14;;;;;;;1.60;1.20;;;;;;;14.16;68.01;100977.78;5081247;28;20915;-69
2022/08/31 05:06:44;;;;;;;2.63;1.23;;;;;;;14.28;67.75;100984.69;5082174;28;20487;-68
2022/08/31 05:09:13;;;;;;;1.67;1.17;;;;;;;14.06;68.12;100988.59;5079728;28;20428;-68
2022/08/31 05:11:40;;;;;;;2.43;1.17;;;;;;;14.40;67.48;100982.66;5069809;28;20480;-69
2022/08/31 05:14:08;;;;;;;1.40;1.30;;;;;;;14.38;67.47;100991.91;5068490;28;20493;-68
2022/08/31 05:16:36;;;;;;;4.60;1.10;;;;;;;14.37;67.52;100987.50;5076594;28;20499;-72
2022/08/31 05:19:03;;;;;;;1.90;1.30;;;;;;;14.27;67.78;100987.56;5079264;28;20977;-67
2022/08/31 05:21:34;;;;;;;2.50;1.07;;;;;;;14.30;67.90;100980.03;5067165;28;20488;-67
2022/08/31 05:24:04;;;;;;;2.30;1.33;;;;;;;14.57;67.25;100991.81;5076108;28;20491;-67
2022/08/31 05:26:33;;;;;;;1.50;1.00;;;;;;;14.62;67.29;100991.41;5088229;28;20502;-67
2022/08/31 05:29:01;;;;;;;2.23;1.07;;;;;;;14.72;66.69;100983.28;5099157;28;20435;-67
2022/08/31 05:31:29;;;;;;;1.27;0.97;;;;;;;15.00;66.09;100976.03;5083307;28;20476;-69
2022/08/31 05:33:56;;;;;;;2.13;1.20;;;;;;;14.95;65.76;100979.19;5078265;28;20466;-69
2022/08/31 05:36:24;;;;;;;2.23;1.10;;;;;;;15.29;64.84;100991.13;5080496;28;20480;-69
2022/08/31 05:38:52;;;;;;;1.60;0.90;;;;;;;15.55;64.71;100996.59;5083516;28;20428;-68
2022/08/31 05:41:21;;;;;;;3.30;1.20;;;;;;;15.74;63.53;100985.63;5082177;28;20478;-67
2022/08/31 05:43:48;;;;;;;1.90;1.30;;;;;;;15.68;63.60;100991.66;5083172;28;20515;-67
2022/08/31 05:46:15;;;;;;;1.43;1.13;;;;;;;15.74;63.56;100992.88;5077992;28;20845;-68
2022/08/31 05:48:42;;;;;;;1.03;0.90;;;;;;;15.66;64.36;100990.13;5077036;28;20507;-70
2022/08/31 05:51:11;;;;;;;1.30;1.10;;;;;;;15.39;64.95;100997.31;5070829;28;20472;-68
2022/08/31 05:53:38;;;;;;;2.70;1.33;;;;;;;15.49;65.28;101003.47;5075464;28;20479;-68
2022/08/31 05:56:09;;;;;;;2.80;1.17;;;;;;;15.59;64.79;100998.84;5081129;28;20529;-68
2022/08/31 05:58:38;;;;;;;2.03;1.10;;;;;;;15.76;64.55;100997.16;5083136;28;20489;-67
2022/08/31 06:01:12;;;;;;;2.40;1.20;;;;;;;16.14;63.58;101000.47;5073634;28;20468;-68
2022/08/31 06:03:39;;;;;;;2.20;1.63;;;;;;;16.34;62.90;101008.34;5072467;28;20514;-69
2022/08/31 06:06:08;;;;;;;2.63;1.20;;;;;;;16.34;62.83;101011.06;5078775;28;20870;-68
2022/08/31 06:08:35;;;;;;;2.33;1.70;;;;;;;16.11;63.43;101018.81;5077840;28;20453;-67
2022/08/31 06:11:02;;;;;;;2.57;1.40;;;;;;;16.43;62.95;101018.19;5068785;28;20546;-68
2022/08/31 06:13:28;;;;;;;2.43;0.97;;;;;;;16.03;64.03;101022.31;5081205;28;21066;-68
2022/08/31 06:15:57;;;;;;;1.20;0.93;;;;;;;16.30;63.69;101015.94;5084498;28;21195;-67
2022/08/31 06:18:24;;;;;;;2.20;1.37;;;;;;;16.50;63.05;101019.22;5079161;28;20794;-67
2022/08/31 06:21:01;;;;;;;2.47;0.90;;;;;;;16.84;62.12;101022.94;5068311;28;21064;-68
2022/08/31 06:23:28;;;;;;;3.30;1.20;;;;;;;16.56;62.10;101023.13;5080465;28;20521;-68
2022/08/31 06:26:01;;;;;;;2.57;1.20;;;;;;;16.92;61.16;101017.59;5066358;28;20468;-66
2022/08/31 06:28:28;;;;;;;3.97;1.50;;;;;;;17.45;60.65;101019.06;5074022;28;20814;-65
2022/08/31 06:30:57;;;;;;;5.60;1.63;;;;;;;17.88;58.40;101018.97;5075152;28;20464;-67
2022/08/31 06:33:23;;;;;;;1.53;1.33;;;;;;;18.10;56.38;101022.00;5068617;28;20819;-66
2022/08/31 06:35:50;;;;;;;2.20;1.30;;;;;;;18.15;57.11;101020.44;5076846;28;20537;-66
2022/08/31 06:38:17;;;;;;;1.90;1.30;;;;;;;17.60;58.35;101019.28;5069738;28;20449;-66
2022/08/31 06:40:43;;;;;;;5.77;2.03;;;;;;;17.97;57.96;101017.94;5068029;28;20467;-67
2022/08/31 06:43:10;;;;;;;3.90;1.60;;;;;;;17.73;58.69;101020.63;5079512;28;20498;-67
2022/08/31 06:45:37;;;;;;;1.50;1.10;;;;;;;17.87;58.38;101026.22;5078705;28;20475;-66
2022/08/31 06:48:06;;;;;;;3.60;1.40;;;;;;;17.44;58.89;101013.84;5081068;28;20448;-67
2022/08/31 06:50:32;;;;;;;2.50;1.50;;;;;;;19.24;54.85;101012.63;5064777;28;20464;-67
2022/08/31 06:52:59;;;;;;;4.90;1.77;;;;;;;20.89;50.15;101022.84;5072846;28;20519;-67
2022/08/31 06:55:26;;;;;;;2.23;1.50;;;;;;;20.67;50.08;101027.34;5075189;28;20492;-67
2022/08/31 06:57:52;;;;;;;2.70;1.60;;;;;;;20.78;49.73;101029.63;5062620;28;20499;-68
2022/08/31 07:00:19;;;;;;;1.90;1.20;;;;;;;19.21;53.86;101025.72;5067520;28;20459;-66
2022/08/31 07:02:46;;;;;;;2.27;1.40;;;;;;;19.33;54.55;101025.09;5080756;28;20456;-67
2022/08/31 07:05:21;;;;;;;2.00;1.23;;;;;;;19.05;55.23;101041.03;5081574;28;20436;-66
2022/08/31 07:07:47;;;;;;;2.70;1.20;;;;;;;18.70;56.14;101037.75;5081206;28;20462;-67
2022/08/31 07:10:14;;;;;;;1.90;1.50;;;;;;;18.38;57.40;101036.84;5065849;28;20432;-68
2022/08/31 07:12:41;;;;;;;2.20;1.50;;;;;;;19.71;53.60;101030.59;5061214;28;20453;-67
2022/08/31 07:15:08;;;;;;;2.17;1.30;;;;;;;19.73;53.26;101030.44;5060585;28;20429;-68
2022/08/31 07:17:35;;;;;;;1.80;1.33;;;;;;;19.17;54.92;101044.19;5060437;28;20471;-68
2022/08/31 07:20:02;;;;;;;3.30;1.33;;;;;;;19.69;53.65;101032.66;5060859;28;20456;-67
2022/08/31 07:22:30;;;;;;;2.50;1.17;;;;;;;19.25;55.33;101037.88;5060814;28;20899;-67
2022/08/31 07:24:57;;;;;;;1.87;1.20;;;;;;;19.90;54.34;101039.31;5074052;28;20566;-67
2022/08/31 07:27:23;;;;;;;2.73;1.40;;;;;;;20.33;52.29;101039.59;5080897;28;20509;-67
2022/08/31 07:29:50;;;;;;;3.53;1.20;;;;;;;20.39;52.48;101035.28;5081028;28;20443;-67
2022/08/31 07:32:17;;;;;;;1.87;1.30;;;;;;;19.84;53.47;101040.91;5079236;28;20468;-69
2022/08/31 07:34:43;;;;;;;5.83;1.87;;;;;;;19.08;55.08;101047.94;5081333;28;20467;-68
2022/08/31 07:42:42;;;;;;;3.13;1.67;;;;;;;18.94;57.01;101050.41;5060314;28;20575;-66
2022/08/31 07:45:20;;;;;;;2.47;1.90;;;;;;;18.36;58.53;101052.38;5060433;28;20472;-66
2022/08/31 07:47:47;;;;;;;2.07;1.60;;;;;;;19.30;56.49;101046.31;5074325;28;20464;-67
2022/08/31 07:50:16;;;;;;;5.90;1.70;;;;;;;19.71;54.51;101054.19;5080690;28;20440;-67
2022/08/31 07:52:47;;;;;;;4.83;2.90;;;;;;;19.79;54.20;101046.03;5081184;28;20447;-66
2022/08/31 07:55:16;;;;;;;2.90;1.73;;;;;;;20.44;52.66;101049.16;5077096;28;20471;-68
2022/08/31 07:57:43;;;;;;;3.60;1.67;;;;;;;21.26;51.11;101053.63;5091541;28;20439;-66
2022/08/31 08:00:13;;;;;;;3.00;1.60;;;;;;;20.85;50.39;101051.44;5100453;28;20456;-67
2022/08/31 08:02:40;;;;;;;3.20;1.57;;;;;;;23.75;44.38;101052.38;5100336;28;20451;-68
2022/08/31 08:05:09;;;;;;;2.13;1.20;;;;;;;24.06;43.52;101055.38;5100060;28;20491;-67
2022/08/31 08:07:36;;;;;;;3.77;1.33;;;;;;;22.44;47.12;101062.31;5100957;28;20497;-68
2022/08/31 08:10:06;;;;;;;2.37;1.60;;;;;;;22.82;46.20;101069.25;5100058;28;20915;-68
2022/08/31 08:12:35;;;;;;;4.50;1.70;;;;;;;22.17;47.61;101059.38;5090941;28;20500;-67
2022/08/31 08:15:02;;;;;;;5.50;1.80;;;;;;;22.58;46.80;101054.22;5099024;28;20454;-68
2022/08/31 08:17:29;;;;;;;2.13;1.30;;;;;;;21.59;49.10;101056.72;5086421;28;20475;-68
2022/08/31 08:19:55;;;;;;;3.10;1.60;;;;;;;22.14;48.37;101067.09;5090904;28;20443;-68
2022/08/31 08:22:23;;;;;;;3.80;1.50;;;;;;;22.50;47.87;101061.53;5075388;28;20472;-67
2022/08/31 08:24:50;;;;;;;3.40;1.40;;;;;;;22.05;48.42;101069.09;5078887;28;20498;-68
2022/08/31 08:27:18;;;;;;;2.50;1.60;;;;;;;21.64;49.32;101050.72;5079786;28;20475;-67
2022/08/31 08:29:47;;;;;;;4.50;1.50;;;;;;;22.99;46.13;101056.13;5073477;28;20966;-68
2022/08/31 08:32:13;;;;;;;3.50;1.53;;;;;;;24.19;43.34;101061.88;5069514;28;20820;-68
2022/08/31 08:34:42;;;;;;;3.70;1.90;;;;;;;24.74;42.28;101054.25;5070870;28;20466;-69
2022/08/31 08:37:09;;;;;;;2.37;1.73;;;;;;;25.15;41.23;101058.53;5069581;28;20525;-68
2022/08/31 08:39:36;;;;;;;2.10;1.63;;;;;;;25.65;40.91;101066.06;5073326;28;20848;-67
2022/08/31 08:42:04;;;;;;;4.87;1.27;;;;;;;25.26;41.52;101059.78;5079443;28;20473;-69
2022/08/31 08:44:32;;;;;;;2.23;1.80;;;;;;;24.36;43.09;101057.66;5080035;28;20885;-67
2022/08/31 08:47:03;;;;;;;4.73;1.50;;;;;;;22.80;46.43;101061.28;5077659;28;20479;-68
2022/08/31 08:49:37;;;;;;;3.43;1.70;;;;;;;21.69;49.67;101061.84;5080283;28;20474;-67
2022/08/31 08:52:10;;;;;;;2.07;1.73;;;;;;;21.70;49.29;101066.28;5079473;28;20522;-68
2022/08/31 08:54:39;;;;;;;1.67;1.50;;;;;;;21.84;49.28;101067.25;5078260;28;20447;-67
2022/08/31 08:57:11;;;;;;;4.07;1.40;;;;;;;22.28;48.54;101068.06;5079520;28;20503;-66
2022/08/31 08:59:38;;;;;;;3.47;1.43;;;;;;;22.96;46.94;101061.97;5080308;28;20922;-67
2022/08/31 09:02:10;;;;;;;3.47;1.30;;;;;;;22.68;46.06;101066.44;5077925;28;20468;-66
2022/08/31 09:04:58;;;;;;;2.33;1.47;;;;;;;23.20;45.83;101060.66;5080006;28;20472;-68
2022/08/31 09:07:43;;;;;;;4.23;1.00;;;;;;;23.95;44.11;101058.72;5058459;28;20523;-68
2022/08/31 09:10:14;;;;;;;3.53;1.30;;;;;;;23.77;43.08;101061.22;5067174;28;20468;-67
2022/08/31 09:12:46;;;;;;;1.97;1.00;;;;;;;24.86;42.00;101062.63;5063170;28;20449;-68
2022/08/31 09:15:35;;;;;;;2.30;1.20;;;;;;;26.31;39.22;101066.63;5063965;28;20437;-68
2022/08/31 09:18:12;;;;;;;2.43;1.50;;;;;;;26.93;37.43;101074.03;5073824;28;20477;-68
2022/08/31 09:20:40;;;;;;;2.13;1.00;;;;;;;26.58;37.43;101064.47;5073598;28;20501;-68
2022/08/31 09:23:07;;;;;;;2.70;1.20;;;;;;;25.19;41.24;101059.75;5079207;28;20456;-68
2022/08/31 09:25:44;;;;;;;3.20;1.30;;;;;;;26.37;38.50;101071.22;5077753;28;20477;-68
2022/08/31 09:28:13;;;;;;;11.77;2.07;;;;;;;25.84;38.85;101056.03;5074836;28;20433;-67
2022/08/31 09:30:50;;;;;;;2.87;1.30;;;;;;;24.81;42.05;101062.44;5073025;28;20484;-67
2022/08/31 09:33:21;;;;;;;2.57;1.30;;;;;;;25.11;41.12;101062.75;5071853;28;20465;-68
2022/08/31 09:35:54;;;;;;;2.50;1.47;;;;;;;26.64;38.12;101066.31;5071975;28;20498;-67
2022/08/31 09:38:27;;;;;;;1.90;1.40;;;;;;;26.50;37.46;101054.63;5081944;28;20442;-68
2022/08/31 09:40:54;;;;;;;2.93;1.50;;;;;;;26.06;38.22;101063.91;5082354;28;20469;-67
2022/08/31 09:43:29;;;;;;;1.70;1.30;;;;;;;25.85;38.89;101071.41;5082697;28;20445;-68
2022/08/31 09:45:58;;;;;;;1.50;1.20;;;;;;;24.80;40.68;101060.75;5076256;28;20492;-67
2022/08/31 09:48:42;;;;;;;2.93;1.47;;;;;;;26.17;38.51;101059.59;5072415;28;20455;-67
2022/08/31 09:51:10;;;;;;;3.60;1.40;;;;;;;25.18;39.78;101063.53;5071915;28;21097;-67
2022/08/31 09:56:25;;;;;;;2.47;1.77;;;;;;;24.93;39.55;101059.84;5064109;28;20484;-68
2022/08/31 09:58:53;;;;;;;5.13;1.57;;;;;;;25.38;38.74;101048.97;5063187;28;20426;-68
2022/08/31 10:01:25;;;;;;;4.30;1.60;;;;;;;25.95;38.86;101056.41;5069954;28;20478;-68
2022/08/31 10:04:08;;;;;;;2.50;1.43;;;;;;;26.33;37.33;101053.53;5082821;28;20508;-67
2022/08/31 10:06:46;;;;;;;3.80;1.20;;;;;;;26.85;36.78;101050.47;5081049;28;20500;-69
2022/08/31 10:09:19;;;;;;;2.20;1.37;;;;;;;27.43;35.43;101057.38;5083350;28;20465;-67
2022/08/31 10:11:47;;;;;;;1.97;1.23;;;;;;;26.15;36.99;101051.59;5082495;28;20474;-67
2022/08/31 10:14:22;;;;;;;4.87;1.53;;;;;;;26.91;36.11;101056.94;5067584;28;20480;-67
2022/08/31 10:16:52;;;;;;;5.73;1.37;;;;;;;26.68;36.26;101052.97;5051622;28;20898;-69
2022/08/31 10:19:33;;;;;;;1.40;1.10;;;;;;;27.05;35.90;101056.56;5047205;28;20517;-67
2022/08/31 10:22:03;;;;;;;3.00;1.00;;;;;;;25.87;38.15;101054.75;5050953;28;20475;-67
2022/08/31 10:24:37;;;;;;;5.50;1.30;;;;;;;27.03;35.48;101055.13;5052004;28;20978;-67
2022/08/31 10:27:15;;;;;;;3.10;1.30;;;;;;;26.75;35.99;101058.41;5041645;28;20479;-67
2022/08/31 10:29:48;;;;;;;4.07;1.40;;;;;;;25.40;38.13;101046.84;5042095;28;20453;-68
2022/08/31 10:32:29;;;;;;;3.70;1.13;;;;;;;24.24;41.14;101041.06;5051132;28;20477;-69
2022/08/31 10:35:04;;;;;;;3.73;1.20;;;;;;;26.21;37.17;101036.97;5061390;28;20500;-69
2022/08/31 10:37:37;;;;;;;3.50;1.70;;;;;;;25.88;38.00;101051.81;5057390;28;20482;-68
2022/08/31 10:40:08;;;;;;;1.87;1.23;;;;;;;25.25;38.08;101044.41;5051223;28;20894;-68
2022/08/31 10:42:38;;;;;;;2.40;1.30;;;;;;;25.92;37.66;101038.50;5070378;28;20581;-68
2022/08/31 10:45:11;;;;;;;4.10;1.20;;;;;;;26.34;36.69;101048.91;5071159;28;20538;-69
2022/08/31 10:47:45;;;;;;;2.03;1.00;;;;;;;25.72;37.25;101041.38;5065426;28;20549;-68
2022/08/31 10:50:15;;;;;;;2.60;1.00;;;;;;;26.09;37.19;101036.03;5059181;28;20492;-67
2022/08/31 10:52:50;;;;;;;1.67;1.13;;;;;;;25.76;37.97;101039.84;5042841;28;20481;-69
2022/08/31 10:55:27;;;;;;;3.93;1.40;;;;;;;25.63;38.43;101038.06;5044322;28;20454;-68
2022/08/31 10:57:58;;;;;;;3.40;1.33;;;;;;;24.85;39.79;101036.34;5092116;28;20443;-68
2022/08/31 11:00:46;;;;;;;2.00;1.17;;;;;;;26.25;37.12;101040.97;5100782;28;20428;-68
2022/08/31 11:03:19;;;;;;;2.03;1.20;;;;;;;26.60;36.12;101036.81;5084985;28;20464;-68
2022/08/31 11:05:52;;;;;;;7.50;1.40;;;;;;;26.35;36.42;101043.16;5075139;28;20485;-68
2022/08/31 11:08:44;;;;;;;2.10;1.40;;;;;;;27.16;34.88;101041.22;5062065;28;20464;-68
2022/08/31 11:11:20;;;;;;;2.53;1.00;;;;;;;26.38;36.66;101039.16;5073322;28;20482;-68
2022/08/31 11:14:04;;;;;;;2.03;1.33;;;;;;;26.78;35.93;101042.31;5075192;28;20460;-67
2022/08/31 11:16:42;;;;;;;2.30;1.40;;;;;;;26.85;35.15;101034.84;5063732;28;20541;-67
2022/08/31 11:19:36;;;;;;;1.90;1.13;;;;;;;25.46;37.74;101040.47;5061149;28;20474;-68
2022/08/31 11:22:33;;;;;;;2.00;1.17;;;;;;;25.44;37.57;101039.03;5060614;28;20489;-67
2022/08/31 11:25:35;;;;;;;3.03;1.17;;;;;;;24.90;38.09;101039.25;5074306;28;20636;-67
2022/08/31 11:28:05;;;;;;;2.07;1.10;;;;;;;26.24;36.75;101043.94;5050752;28;20470;-67
2022/08/31 11:30:36;;;;;;;2.17;1.00;;;;;;;27.15;34.85;101044.19;5062905;28;20465;-67
2022/08/31 11:33:06;;;;;;;1.50;1.07;;;;;;;26.98;35.63;101046.75;5061680;28;20522;-67
2022/08/31 11:36:01;;;;;;;4.00;1.37;;;;;;;26.24;36.15;101041.19;5060519;28;20469;-65
2022/08/31 11:41:51;;;;;;;2.13;1.20;;;;;;;26.17;36.46;101032.19;5135477;27;20561;-66
2022/08/31 11:45:00;;;;;;;3.20;0.90;;;;;;;26.76;34.82;101033.50;5117342;28;20441;-67
2022/08/31 11:47:42;;;;;;;5.80;1.17;;;;;;;25.92;35.73;101030.28;5109963;28;20532;-66
2022/08/31 11:50:41;;;;;;;2.10;1.00;;;;;;;26.49;34.61;101022.78;5128483;27;20473;-67